Time;durP1;ratioP1;P1;durP2;ratioP2;P2;SDS_P1;SDS_P2;PMS_P1;PMS_P2;Temp;Humidity;BMP_temperature;BMP_pressure;BME280_temperature;BME280_humidity;BME280_pressure;Samples;Min_cycle;Max_cycle;Signal;HPM_P1;HPM_P2
2022/01/28 00:01:22;;;;;;;6.40;2.78;;;;;;;-7.34;68.27;98511.78;5013553;28;20580;-60
2022/01/28 00:03:49;;;;;;;10.00;3.33;;;;;;;-7.30;68.85;98512.91;5011065;28;20073;-60
2022/01/28 00:06:17;;;;;;;7.15;3.17;;;;;;;-7.21;68.62;98508.75;5003015;28;20058;-58
2022/01/28 00:08:44;;;;;;;4.13;2.13;;;;;;;-7.16;68.09;98503.44;5009838;28;20077;-60
2022/01/28 00:11:11;;;;;;;7.75;3.08;;;;;;;-7.17;68.16;98509.88;4995620;28;20128;-59
2022/01/28 00:13:41;;;;;;;4.38;2.60;;;;;;;-7.18;68.64;98486.66;4993539;28;20149;-62
2022/01/28 00:39:44;;;;;;;6.93;2.83;;;;;;;-7.36;69.61;98476.06;5012572;28;20050;-62
2022/01/28 00:42:12;;;;;;;6.38;2.40;;;;;;;-7.35;70.16;98464.19;5010167;28;20084;-62
2022/01/28 00:44:39;;;;;;;6.35;3.17;;;;;;;-7.29;69.17;98463.22;5012935;28;20069;-61
2022/01/28 00:47:06;;;;;;;12.30;4.22;;;;;;;-7.28;69.96;98469.44;5010871;28;20149;-61
2022/01/28 00:49:33;;;;;;;7.78;3.05;;;;;;;-7.24;69.19;98468.72;5012716;28;20137;-62
2022/01/28 00:52:00;;;;;;;6.07;3.00;;;;;;;-7.24;69.76;98479.53;5010154;28;20141;-61
2022/01/28 00:54:27;;;;;;;9.52;2.90;;;;;;;-7.31;69.43;98459.97;5012257;28;20054;-62
2022/01/28 00:56:54;;;;;;;8.98;3.15;;;;;;;-7.27;70.65;98450.31;5009338;28;20593;-62
2022/01/28 00:59:21;;;;;;;21.50;2.88;;;;;;;-7.21;70.68;98446.63;4994558;28;20140;-62
2022/01/28 01:01:48;;;;;;;4.47;2.80;;;;;;;-7.17;70.69;98428.84;4992950;28;20060;-62
2022/01/28 01:04:15;;;;;;;4.35;2.75;;;;;;;-7.13;69.92;98451.63;5012529;28;20073;-62
2022/01/28 01:06:42;;;;;;;11.23;2.95;;;;;;;-7.17;70.11;98433.44;4999668;28;20050;-61
2022/01/28 01:09:09;;;;;;;9.38;2.80;;;;;;;-7.14;69.43;98425.66;5011047;28;20054;-64
2022/01/28 01:11:39;;;;;;;5.35;2.30;;;;;;;-7.08;69.59;98421.94;5005294;28;20084;-64
2022/01/28 01:14:06;;;;;;;8.30;3.50;;;;;;;-7.03;69.04;98423.91;5010264;28;20041;-63
2022/01/28 01:16:45;;;;;;;7.15;3.47;;;;;;;-7.00;69.59;98424.25;5012177;28;20089;-64
2022/01/28 01:19:22;;;;;;;8.32;2.85;;;;;;;-6.95;68.91;98410.00;4982417;28;20493;-64
2022/01/28 01:21:55;;;;;;;6.75;3.38;;;;;;;-6.97;68.98;98404.84;5010224;28;20424;-63
2022/01/28 01:24:24;;;;;;;22.85;3.47;;;;;;;-7.04;69.43;98422.28;4997111;28;20168;-64
2022/01/28 01:26:52;;;;;;;6.53;3.40;;;;;;;-7.05;69.00;98415.25;5010428;28;20073;-62
2022/01/28 01:29:22;;;;;;;5.75;3.40;;;;;;;-6.99;69.15;98406.94;4996720;28;20049;-63
2022/01/28 01:31:49;;;;;;;4.72;2.38;;;;;;;-6.94;69.17;98406.22;5004617;28;20200;-63
2022/01/28 01:34:20;;;;;;;6.32;2.90;;;;;;;-6.94;69.80;98404.34;5011099;28;20128;-64
2022/01/28 01:36:47;;;;;;;8.35;3.38;;;;;;;-6.96;69.33;98395.66;5011461;28;20514;-63
2022/01/28 01:39:20;;;;;;;9.13;3.50;;;;;;;-6.88;69.35;98403.34;4997714;28;20129;-62
2022/01/28 01:42:16;;;;;;;7.25;3.40;;;;;;;-6.87;69.67;98401.47;5004441;28;20045;-62
2022/01/28 01:52:27;;;;;;;6.60;3.25;;;;;;;-6.84;68.92;98390.94;5008481;28;20052;-61
2022/01/28 01:54:54;;;;;;;4.95;2.55;;;;;;;-6.83;68.50;98392.59;5004251;28;20054;-60
2022/01/28 01:57:21;;;;;;;12.27;3.88;;;;;;;-6.80;68.54;98389.41;5008607;28;20140;-59
2022/01/28 01:59:49;;;;;;;4.85;2.75;;;;;;;-6.80;68.78;98375.06;5011173;28;20049;-61
2022/01/28 02:02:16;;;;;;;7.03;2.97;;;;;;;-6.88;68.56;98395.22;5008807;28;20137;-62
2022/01/28 02:04:43;;;;;;;8.80;4.30;;;;;;;-6.88;69.17;98383.59;5011258;28;20064;-59
2022/01/28 02:07:14;;;;;;;9.45;3.47;;;;;;;-6.78;69.30;98379.13;5009104;28;20058;-58
2022/01/28 02:09:41;;;;;;;8.45;3.75;;;;;;;-6.73;68.85;98373.81;5010726;28;20417;-60
2022/01/28 02:12:09;;;;;;;10.85;4.00;;;;;;;-6.72;69.04;98371.94;5009004;28;20136;-61
2022/01/28 02:14:36;;;;;;;8.43;3.42;;;;;;;-6.74;68.75;98385.69;5011148;28;20487;-62
2022/01/28 02:17:04;;;;;;;7.07;3.05;;;;;;;-6.70;69.19;98381.41;5008789;28;20133;-60
2022/01/28 02:19:31;;;;;;;2.88;1.60;;;;;;;-6.65;68.16;98395.00;5011175;28;20046;-57
2022/01/28 02:21:58;;;;;;;9.90;4.97;;;;;;;-6.66;68.47;98381.75;5008963;28;20080;-60
2022/01/28 02:24:31;;;;;;;6.38;3.58;;;;;;;-6.68;68.69;98363.06;4996192;28;20497;-61
2022/01/28 02:26:58;;;;;;;9.80;3.30;;;;;;;-6.66;68.63;98365.53;5008895;28;20556;-59
2022/01/28 02:29:33;;;;;;;8.77;3.60;;;;;;;-6.64;68.75;98366.91;4995839;28;20124;-59
2022/01/28 02:32:02;;;;;;;10.73;3.47;;;;;;;-6.59;68.31;98366.97;5000722;28;20141;-61
2022/01/28 02:34:30;;;;;;;7.50;3.27;;;;;;;-6.54;68.26;98364.31;5010377;28;20057;-57
2022/01/28 02:36:57;;;;;;;6.40;3.50;;;;;;;-6.58;68.35;98355.06;5008979;28;20595;-62
2022/01/28 02:39:25;;;;;;;10.77;4.45;;;;;;;-6.58;68.11;98356.94;4995158;28;20050;-59
2022/01/28 02:41:59;;;;;;;8.93;3.58;;;;;;;-6.65;68.24;98348.22;5009364;28;20054;-60
2022/01/28 02:47:36;;;;;;;8.52;3.40;;;;;;;-6.73;68.88;98344.06;5000878;28;20470;-61
2022/01/28 02:50:07;;;;;;;6.20;2.85;;;;;;;-6.74;68.00;98333.50;5010675;28;20054;-59
2022/01/28 02:52:39;;;;;;;10.55;4.00;;;;;;;-6.75;68.48;98343.50;4990451;28;20065;-58
2022/01/28 02:55:10;;;;;;;9.55;4.20;;;;;;;-6.73;67.96;98332.44;5010695;28;20128;-62
2022/01/28 02:57:43;;;;;;;17.20;3.50;;;;;;;-6.77;67.59;98332.13;5008676;28;20062;-58
2022/01/28 03:00:10;;;;;;;11.68;3.90;;;;;;;-6.85;68.87;98329.84;5010199;28;20049;-60
2022/01/28 03:02:37;;;;;;;7.88;2.88;;;;;;;-6.86;68.06;98309.31;5008262;28;20140;-61
2022/01/28 03:07:37;;;;;;;8.18;4.00;;;;;;;-6.92;67.99;98318.44;5008013;28;20438;-62
2022/01/28 03:12:37;;;;;;;7.97;3.80;;;;;;;-6.83;67.75;98308.00;5007926;28;20146;-62
2022/01/28 03:15:07;;;;;;;8.15;4.00;;;;;;;-6.78;67.93;98306.16;4992681;28;20088;-60
2022/01/28 03:22:45;;;;;;;11.70;4.20;;;;;;;-6.70;67.47;98315.72;5013363;28;20077;-62
2022/01/28 03:25:12;;;;;;;9.30;3.70;;;;;;;-6.72;68.17;98310.56;5014319;28;20442;-63
2022/01/28 03:27:50;;;;;;;6.05;3.25;;;;;;;-6.75;67.49;98313.75;5012438;28;20134;-62
2022/01/28 03:30:17;;;;;;;7.75;4.03;;;;;;;-6.80;67.97;98321.81;5012806;28;20050;-63
2022/01/28 03:32:44;;;;;;;8.70;4.25;;;;;;;-6.77;68.04;98321.31;5000389;28;20137;-64
2022/01/28 03:35:27;;;;;;;8.73;4.00;;;;;;;-6.75;67.84;98313.75;5011560;28;20046;-64
2022/01/28 03:37:59;;;;;;;10.95;3.78;;;;;;;-6.71;68.40;98317.63;5013577;28;20154;-64
2022/01/28 03:40:28;;;;;;;10.38;3.60;;;;;;;-6.66;68.18;98319.56;5011567;28;20050;-62
2022/01/28 03:42:55;;;;;;;12.15;3.85;;;;;;;-6.62;68.46;98313.38;4985488;28;20056;-63
2022/01/28 03:45:23;;;;;;;10.55;3.70;;;;;;;-6.55;67.38;98307.78;4994141;28;20050;-64
2022/01/28 03:47:50;;;;;;;12.80;4.25;;;;;;;-6.58;67.36;98284.75;5013242;28;20124;-64
2022/01/28 03:50:17;;;;;;;7.88;3.72;;;;;;;-6.63;68.46;98306.31;4995900;28;20076;-64
2022/01/28 03:52:44;;;;;;;9.93;4.30;;;;;;;-6.60;68.22;98303.13;5012344;28;20053;-64
2022/01/28 03:55:11;;;;;;;9.60;4.47;;;;;;;-6.63;68.31;98287.41;5013777;28;20149;-65
2022/01/28 03:57:38;;;;;;;9.02;3.72;;;;;;;-6.65;68.35;98308.50;5010975;28;20073;-64
2022/01/28 04:00:06;;;;;;;14.02;5.05;;;;;;;-6.67;68.11;98299.81;5013362;28;20134;-64
2022/01/28 04:02:36;;;;;;;6.72;3.70;;;;;;;-6.63;68.23;98290.09;4993459;28;20053;-63
2022/01/28 04:13:25;;;;;;;7.15;4.05;;;;;;;-6.52;67.42;98289.16;5013373;28;20394;-64
2022/01/28 04:18:39;;;;;;;12.48;5.45;;;;;;;-6.54;68.11;98291.28;4971839;28;20521;-63
2022/01/28 04:21:06;;;;;;;14.48;4.90;;;;;;;-6.53;67.31;98279.41;5010298;28;20401;-62
2022/01/28 04:23:34;;;;;;;12.88;5.38;;;;;;;-6.52;68.06;98291.03;5006772;28;20128;-62
2022/01/28 04:26:01;;;;;;;14.52;5.28;;;;;;;-6.53;67.63;98295.66;5010817;28;20137;-62
2022/01/28 04:28:28;;;;;;;20.48;6.78;;;;;;;-6.55;67.69;98273.44;5013024;28;20053;-63
2022/01/28 04:30:55;;;;;;;11.65;3.67;;;;;;;-6.52;67.48;98280.22;5010382;28;20413;-63
2022/01/28 04:33:22;;;;;;;14.25;6.22;;;;;;;-6.61;67.66;98282.56;5013100;28;20501;-62
2022/01/28 04:35:52;;;;;;;14.30;4.90;;;;;;;-6.67;67.85;98271.94;5010081;28;20140;-62
2022/01/28 04:41:00;;;;;;;10.85;4.90;;;;;;;-6.72;68.69;98280.81;5010154;28;20062;-60
2022/01/28 04:43:35;;;;;;;;;;;;;;;-6.64;67.83;98279.53;4995753;28;20050;-56
2022/01/28 04:46:13;;;;;;;17.55;5.30;;;;;;;-6.61;68.31;98287.16;4992729;28;19925;-58
2022/01/28 04:48:49;;;;;;;11.57;4.93;;;;;;;-6.57;67.77;98283.69;5012431;28;20599;-59
2022/01/28 04:51:34;;;;;;;14.52;6.10;;;;;;;-6.54;68.21;98285.88;5010773;28;20124;-59
2022/01/28 05:11:28;;;;;;;10.70;4.97;;;;;;;-6.53;67.87;98284.84;5012052;28;20129;-58
2022/01/28 05:16:02;;;;;;;13.68;6.15;;;;;;;-6.60;68.04;98278.78;5011577;28;20146;-58
2022/01/28 05:27:00;;;;;;;15.52;6.05;;;;;;;-6.68;68.29;98281.97;4999778;28;20424;-59
2022/01/28 05:29:27;;;;;;;16.65;6.28;;;;;;;-6.71;68.03;98260.00;5009408;28;20057;-61
2022/01/28 05:31:54;;;;;;;10.73;5.15;;;;;;;-6.72;68.54;98264.59;4985444;28;20101;-60
2022/01/28 05:34:27;;;;;;;10.38;4.65;;;;;;;-6.74;68.15;98253.25;5006545;28;20054;-59
2022/01/28 05:36:55;;;;;;;13.82;6.80;;;;;;;-6.72;68.97;98264.59;5011391;28;20133;-60
2022/01/28 05:39:22;;;;;;;12.93;6.10;;;;;;;-6.79;69.46;98258.56;5008818;28;20050;-59
2022/01/28 05:41:49;;;;;;;11.20;4.90;;;;;;;-6.79;69.75;98250.47;5011764;28;20457;-59
2022/01/28 05:44:18;;;;;;;19.27;5.88;;;;;;;-6.80;69.41;98256.94;5000067;28;20497;-60
2022/01/28 05:46:45;;;;;;;12.68;5.20;;;;;;;-6.86;70.29;98257.97;5011067;28;20131;-60
2022/01/28 05:49:13;;;;;;;17.17;5.40;;;;;;;-6.82;69.22;98256.38;4998877;28;20049;-62
2022/01/28 05:51:42;;;;;;;11.57;4.63;;;;;;;-6.79;69.55;98257.75;5010951;28;20049;-58
2022/01/28 05:54:10;;;;;;;12.00;5.43;;;;;;;-6.75;69.65;98257.00;4991583;28;20085;-59
2022/01/28 05:56:37;;;;;;;9.88;4.53;;;;;;;-6.82;70.93;98248.28;4995288;28;20046;-58
2022/01/28 05:59:04;;;;;;;18.08;5.18;;;;;;;-6.89;72.63;98252.25;5004544;28;20058;-60
2022/01/28 06:01:31;;;;;;;10.90;4.85;;;;;;;-6.86;73.87;98257.97;5005613;28;20046;-60
2022/01/28 06:03:58;;;;;;;12.93;5.15;;;;;;;-6.82;74.08;98247.44;5011054;28;20509;-57
2022/01/28 06:06:25;;;;;;;16.35;5.22;;;;;;;-6.76;73.30;98243.72;5002788;28;20517;-59
2022/01/28 06:08:54;;;;;;;14.68;6.72;;;;;;;-6.74;73.38;98249.69;5004892;28;20493;-59
2022/01/28 06:11:23;;;;;;;17.10;5.80;;;;;;;-6.75;73.19;98243.47;5008218;28;20088;-61
2022/01/28 06:13:51;;;;;;;17.33;5.72;;;;;;;-6.79;73.66;98241.53;4995878;28;20057;-60
2022/01/28 06:16:19;;;;;;;10.52;5.63;;;;;;;-6.86;73.04;98241.75;5007141;28;20064;-57
2022/01/28 06:18:46;;;;;;;19.38;5.57;;;;;;;-6.91;72.54;98252.50;4978388;28;20066;-57
2022/01/28 06:21:13;;;;;;;14.73;6.40;;;;;;;-6.88;73.77;98238.47;5006039;28;20078;-60
2022/01/28 06:23:40;;;;;;;12.77;6.18;;;;;;;-6.82;72.79;98245.56;5011382;28;20045;-59
2022/01/28 06:26:07;;;;;;;12.95;5.55;;;;;;;-6.79;72.30;98231.53;5008822;28;20141;-58
2022/01/28 06:28:34;;;;;;;14.00;5.30;;;;;;;-6.73;72.55;98244.03;4993088;28;20058;-59
2022/01/28 06:31:01;;;;;;;9.23;4.80;;;;;;;-6.70;72.97;98238.13;5008347;28;20133;-57
2022/01/28 06:33:28;;;;;;;20.35;5.63;;;;;;;-6.66;72.55;98219.53;5010538;28;20054;-59
2022/01/28 06:35:55;;;;;;;15.82;6.40;;;;;;;-6.72;72.36;98228.66;5008645;28;20136;-61
2022/01/28 06:38:23;;;;;;;11.93;4.80;;;;;;;-6.72;72.99;98221.34;5010102;28;20452;-59
2022/01/28 06:40:50;;;;;;;16.10;4.82;;;;;;;-6.67;73.25;98234.91;5010158;28;20398;-57
2022/01/28 06:43:17;;;;;;;9.75;4.65;;;;;;;-6.68;72.76;98222.47;5009173;28;20136;-62
2022/01/28 06:45:44;;;;;;;8.82;4.28;;;;;;;-6.64;72.53;98226.28;5010516;28;20468;-56
2022/01/28 06:48:12;;;;;;;13.45;5.32;;;;;;;-6.57;72.88;98218.00;5008226;28;20076;-62
2022/01/28 06:50:44;;;;;;;12.55;5.43;;;;;;;-6.48;72.45;98214.53;5003211;28;20084;-61
2022/01/28 06:53:13;;;;;;;14.73;5.78;;;;;;;-6.42;72.59;98221.66;5007859;28;20049;-62
2022/01/28 06:55:41;;;;;;;11.32;5.00;;;;;;;-6.32;72.25;98229.03;5010230;28;20054;-56
2022/01/28 06:58:09;;;;;;;14.10;5.47;;;;;;;-6.28;72.67;98212.03;5007783;28;20069;-63
2022/01/28 07:00:37;;;;;;;12.65;6.05;;;;;;;-6.15;71.69;98227.84;5010164;28;20421;-57
2022/01/28 07:03:06;;;;;;;11.93;5.80;;;;;;;-6.05;71.99;98217.09;5007996;28;20133;-63
2022/01/28 07:05:33;;;;;;;20.08;6.82;;;;;;;-5.97;71.37;98224.75;5009882;28;20523;-58
2022/01/28 07:08:01;;;;;;;13.18;4.35;;;;;;;-5.91;71.24;98212.88;5008315;28;20058;-57
2022/01/28 07:10:28;;;;;;;11.82;5.70;;;;;;;-5.90;71.76;98216.38;4992262;28;20424;-56
2022/01/28 07:12:55;;;;;;;8.05;4.30;;;;;;;-5.95;71.41;98216.38;5007693;28;20492;-57
2022/01/28 07:15:24;;;;;;;12.32;5.18;;;;;;;-5.99;71.13;98212.53;5010582;28;20540;-62
2022/01/28 07:17:53;;;;;;;20.98;5.47;;;;;;;-5.89;70.90;98221.53;5007712;28;20050;-59
2022/01/28 07:20:24;;;;;;;11.80;5.15;;;;;;;-5.84;70.77;98234.31;4996530;28;20084;-62
2022/01/28 07:22:51;;;;;;;14.48;5.63;;;;;;;-5.78;70.92;98230.53;5008219;28;20069;-63
2022/01/28 07:25:18;;;;;;;11.85;6.22;;;;;;;-5.74;71.34;98224.31;4994542;28;20136;-64
2022/01/28 07:27:45;;;;;;;10.75;5.07;;;;;;;-5.69;71.33;98234.38;5008910;28;20046;-64
2022/01/28 07:30:13;;;;;;;12.30;5.40;;;;;;;-5.69;70.85;98227.06;4996198;28;20085;-63
2022/01/28 07:32:42;;;;;;;6.03;4.07;;;;;;;-5.73;71.22;98235.97;5009984;28;20058;-62
2022/01/28 07:35:11;;;;;;;12.68;6.15;;;;;;;-5.83;71.92;98220.50;4984111;28;20050;-63
2022/01/28 07:37:39;;;;;;;12.02;5.80;;;;;;;-5.80;71.99;98236.19;5009548;28;20464;-63
2022/01/28 07:40:06;;;;;;;11.68;5.00;;;;;;;-5.81;72.16;98229.16;5006319;28;20050;-63
2022/01/28 07:42:37;;;;;;;14.27;6.35;;;;;;;-5.77;72.29;98227.56;5002283;28;20056;-63
2022/01/28 07:45:06;;;;;;;13.57;5.28;;;;;;;-5.79;71.67;98232.44;5007406;28;20505;-63
2022/01/28 07:47:36;;;;;;;9.77;5.05;;;;;;;-5.65;71.91;98233.59;5010095;28;20473;-63
2022/01/28 07:50:08;;;;;;;12.80;6.28;;;;;;;-5.51;71.67;98216.91;5007614;28;20053;-63
2022/01/28 07:52:36;;;;;;;16.05;6.25;;;;;;;-5.47;71.69;98223.41;5009880;28;20563;-63
2022/01/28 07:55:05;;;;;;;9.95;3.97;;;;;;;-5.45;71.39;98230.19;4996301;28;20045;-59
2022/01/28 07:57:32;;;;;;;13.85;5.32;;;;;;;-5.46;71.26;98225.03;5009646;28;20064;-59
2022/01/28 07:59:59;;;;;;;13.10;5.78;;;;;;;-5.44;70.98;98222.88;4990117;28;20065;-59
2022/01/28 08:02:27;;;;;;;13.02;4.68;;;;;;;-5.47;71.16;98228.84;5009917;28;20133;-57
2022/01/28 08:04:55;;;;;;;15.15;5.47;;;;;;;-5.59;71.11;98215.50;5007340;28;20512;-60
2022/01/28 08:07:22;;;;;;;13.68;5.35;;;;;;;-5.44;71.59;98220.19;5011619;28;20076;-59
2022/01/28 08:09:50;;;;;;;9.73;5.25;;;;;;;-5.43;71.09;98225.34;5010967;28;20054;-60
2022/01/28 08:12:17;;;;;;;15.23;5.85;;;;;;;-5.42;71.14;98234.28;5013019;28;20179;-60
2022/01/28 08:14:44;;;;;;;10.02;4.13;;;;;;;-5.40;71.52;98218.56;5011009;28;20053;-60
2022/01/28 08:17:11;;;;;;;14.70;6.57;;;;;;;-5.42;71.72;98228.88;5013021;28;20077;-60
2022/01/28 08:19:38;;;;;;;12.70;5.95;;;;;;;-5.32;71.66;98232.44;5011318;28;20053;-61
2022/01/28 08:22:05;;;;;;;16.17;7.30;;;;;;;-5.39;71.29;98221.00;5012389;28;20054;-62
2022/01/28 08:24:33;;;;;;;14.52;6.57;;;;;;;-5.36;72.09;98216.97;5012652;28;20054;-59
2022/01/28 08:27:00;;;;;;;15.00;6.30;;;;;;;-5.21;71.74;98222.47;5011692;28;20139;-61
2022/01/28 08:29:27;;;;;;;9.20;4.28;;;;;;;-5.22;71.92;98220.81;5013353;28;20053;-59
2022/01/28 08:31:54;;;;;;;12.45;6.22;;;;;;;-5.35;72.29;98210.47;5007378;28;20077;-63
2022/01/28 08:34:21;;;;;;;10.88;4.95;;;;;;;-5.26;71.51;98217.03;5012972;28;20409;-60
2022/01/28 08:36:48;;;;;;;13.80;6.45;;;;;;;-5.19;71.01;98209.47;5010551;28;20058;-60
2022/01/28 08:39:16;;;;;;;15.70;6.85;;;;;;;-5.19;71.50;98215.69;5012992;28;20075;-59
2022/01/28 08:41:43;;;;;;;13.15;6.13;;;;;;;-5.27;70.98;98212.69;5009856;28;20572;-61
2022/01/28 08:44:15;;;;;;;17.27;6.97;;;;;;;-5.24;70.75;98201.31;5012325;28;20132;-61
2022/01/28 08:46:42;;;;;;;16.38;7.55;;;;;;;-5.17;71.26;98201.88;5010326;28;20074;-62
2022/01/28 08:49:09;;;;;;;16.83;6.70;;;;;;;-5.16;70.95;98193.50;5012861;28;20057;-59
2022/01/28 08:51:37;;;;;;;12.90;6.13;;;;;;;-5.10;70.58;98199.78;5010268;28;20058;-59
2022/01/28 08:54:04;;;;;;;16.10;6.63;;;;;;;-5.07;69.72;98188.41;5012430;28;20045;-60
2022/01/28 08:56:31;;;;;;;16.25;7.45;;;;;;;-4.83;70.15;98192.28;4992036;28;20103;-60
2022/01/28 08:58:58;;;;;;;15.48;6.75;;;;;;;-4.71;69.51;98184.69;4999331;28;20509;-59
2022/01/28 09:01:27;;;;;;;12.98;6.18;;;;;;;-4.78;69.60;98197.69;4998862;28;20042;-60
2022/01/28 09:03:54;;;;;;;16.42;7.93;;;;;;;-4.87;69.63;98199.28;5003889;28;20517;-61
2022/01/28 09:06:21;;;;;;;12.35;4.63;;;;;;;-4.99;69.44;98193.28;5011020;28;20505;-63
2022/01/28 09:08:49;;;;;;;22.10;7.70;;;;;;;-5.12;70.36;98180.22;5000960;28;20470;-62
2022/01/28 09:11:47;;;;;;;14.73;6.50;;;;;;;-5.06;70.99;98176.47;5010752;28;20049;-60
2022/01/28 09:14:06;;;;;;;14.10;6.53;;;;;;;-5.04;71.28;98187.88;5004898;28;20074;-60
2022/01/28 09:16:33;;;;;;;21.92;9.07;;;;;;;-5.04;70.93;98185.16;5002258;28;20046;-60
2022/01/28 09:19:00;;;;;;;18.90;6.32;;;;;;;-5.02;70.88;98166.72;5006254;28;20386;-61
2022/01/28 09:21:27;;;;;;;17.42;7.80;;;;;;;-4.82;71.01;98180.31;5004043;28;20505;-60
2022/01/28 09:23:55;;;;;;;20.38;7.50;;;;;;;-4.78;70.21;98184.13;5005729;28;20581;-60
2022/01/28 09:26:25;;;;;;;18.35;6.88;;;;;;;-4.86;70.40;98179.25;5010434;28;20583;-62
2022/01/28 09:28:53;;;;;;;18.55;7.85;;;;;;;-4.85;70.17;98178.16;4998398;28;20042;-59
2022/01/28 09:31:20;;;;;;;15.98;7.18;;;;;;;-4.92;70.71;98177.59;5007412;28;20476;-62
2022/01/28 09:33:47;;;;;;;30.70;9.80;;;;;;;-4.98;70.31;98190.31;5008700;28;20100;-59
2022/01/28 09:36:15;;;;;;;45.63;14.15;;;;;;;-4.98;70.83;98178.66;4993838;28;20152;-57
2022/01/28 09:38:42;;;;;;;17.92;7.97;;;;;;;-4.94;70.44;98182.47;5009617;28;20050;-61
2022/01/28 09:41:09;;;;;;;21.35;9.70;;;;;;;-4.90;70.07;98183.56;5011558;28;20058;-63
2022/01/28 09:43:37;;;;;;;15.27;6.65;;;;;;;-4.81;69.75;98173.81;4991916;28;20061;-63
2022/01/28 09:46:04;;;;;;;18.70;7.10;;;;;;;-4.81;69.89;98174.63;5011316;28;20145;-64
2022/01/28 09:48:32;;;;;;;21.60;8.35;;;;;;;-4.62;69.86;98172.25;5009385;28;20085;-63
2022/01/28 09:51:00;;;;;;;20.23;8.68;;;;;;;-4.55;69.90;98170.06;5011262;28;20149;-65
2022/01/28 09:53:28;;;;;;;21.50;8.20;;;;;;;-4.51;69.58;98163.84;5009564;28;20408;-62
2022/01/28 09:55:56;;;;;;;19.38;9.07;;;;;;;-4.38;69.20;98173.34;5011326;28;20072;-62
2022/01/28 09:58:24;;;;;;;17.13;7.63;;;;;;;-4.33;68.89;98165.19;5008436;28;20415;-63
2022/01/28 10:00:52;;;;;;;26.45;9.23;;;;;;;-4.40;68.28;98160.06;5011016;28;20053;-63
2022/01/28 10:03:20;;;;;;;19.67;7.13;;;;;;;-4.46;68.44;98163.03;5009857;28;20521;-62
2022/01/28 10:05:50;;;;;;;20.73;8.00;;;;;;;-4.60;69.05;98159.22;5004790;28;20137;-62
2022/01/28 10:08:20;;;;;;;16.48;7.55;;;;;;;-4.63;68.84;98170.59;4987343;28;20477;-61
2022/01/28 10:11:08;;;;;;;19.57;7.73;;;;;;;-4.72;69.54;98164.91;5010469;28;20160;-62
2022/01/28 10:13:43;;;;;;;19.85;7.72;;;;;;;-4.79;69.36;98163.53;5008337;28;20388;-62
2022/01/28 10:16:14;;;;;;;20.23;7.20;;;;;;;-4.78;69.02;98157.84;5010812;28;20053;-61
2022/01/28 10:18:53;;;;;;;16.05;7.55;;;;;;;-4.81;69.16;98168.38;4990803;28;20060;-62
2022/01/28 10:21:38;;;;;;;20.00;8.05;;;;;;;-4.84;69.28;98164.31;5010468;28;20045;-62
2022/01/28 10:24:09;;;;;;;24.27;8.73;;;;;;;-4.84;68.99;98158.06;4997422;28;20050;-62
2022/01/28 10:26:47;;;;;;;19.23;8.02;;;;;;;-4.88;69.28;98149.69;4992520;28;20080;-62
2022/01/28 10:29:22;;;;;;;16.33;8.32;;;;;;;-4.87;68.72;98147.75;4995426;28;20447;-62
2022/01/28 10:31:53;;;;;;;24.35;10.38;;;;;;;-4.96;69.39;98152.09;4994997;28;20050;-61
2022/01/28 10:34:32;;;;;;;18.73;8.45;;;;;;;-5.01;70.03;98143.97;5003105;28;20053;-62
2022/01/28 10:37:11;;;;;;;26.92;9.32;;;;;;;-4.91;69.86;98146.69;5007744;28;20061;-62
2022/01/28 10:39:49;;;;;;;20.42;8.25;;;;;;;-5.04;70.13;98141.78;4994413;28;20070;-62
2022/01/28 10:42:38;;;;;;;23.70;11.35;;;;;;;-5.05;70.47;98127.41;5008458;28;20128;-61
2022/01/28 10:45:13;;;;;;;26.33;11.60;;;;;;;-5.02;70.42;98145.03;5008195;28;20136;-62
2022/01/28 10:47:46;;;;;;;24.15;9.93;;;;;;;-4.98;70.45;98146.13;4993448;28;20045;-60
2022/01/28 10:50:25;;;;;;;35.70;13.65;;;;;;;-4.89;70.37;98152.66;4986398;28;20486;-62
2022/01/28 10:53:05;;;;;;;27.92;9.02;;;;;;;-4.85;69.91;98122.03;4973485;28;20057;-62
2022/01/28 10:55:54;;;;;;;25.70;11.23;;;;;;;-4.78;69.90;98138.84;5002910;28;20072;-63
2022/01/28 10:58:27;;;;;;;24.92;9.20;;;;;;;-4.74;69.42;98136.41;5003483;28;20090;-62
2022/01/28 11:00:57;;;;;;;29.77;9.95;;;;;;;-4.74;69.77;98139.13;4994696;28;20096;-62
2022/01/28 11:03:27;;;;;;;21.38;8.68;;;;;;;-4.75;69.69;98123.91;4990548;28;20527;-61
2022/01/28 11:05:59;;;;;;;22.35;8.88;;;;;;;-4.71;69.98;98131.25;5004463;28;20046;-62
2022/01/28 11:08:32;;;;;;;26.08;11.15;;;;;;;-4.78;69.62;98140.72;5003773;28;20076;-62
2022/01/28 11:11:00;;;;;;;30.25;11.30;;;;;;;-4.78;68.95;98124.47;4994994;28;20144;-59
2022/01/28 11:13:29;;;;;;;28.42;9.80;;;;;;;-4.81;69.30;98131.25;5008940;28;20058;-57
2022/01/28 11:15:57;;;;;;;22.52;9.15;;;;;;;-4.85;69.74;98123.91;5009404;28;20057;-54
2022/01/28 11:18:26;;;;;;;30.15;11.75;;;;;;;-4.78;69.80;98138.03;5009289;28;20464;-59
2022/01/28 11:21:04;;;;;;;27.27;10.90;;;;;;;-4.83;69.65;98119.06;5008799;28;20050;-59
2022/01/28 11:24:13;;;;;;;27.27;10.23;;;;;;;-4.78;69.49;98129.88;5009097;28;20042;-58
2022/01/28 11:26:53;;;;;;;25.52;8.93;;;;;;;-4.85;69.76;98134.75;4996609;28;20108;-61
2022/01/28 11:29:26;;;;;;;31.50;10.97;;;;;;;-5.11;69.12;98125.75;4996909;28;20057;-59
2022/01/28 11:32:08;;;;;;;19.63;8.15;;;;;;;-5.31;70.42;98124.88;5000942;28;20856;-61
2022/01/28 11:34:36;;;;;;;27.05;10.68;;;;;;;-5.25;70.22;98116.50;4997004;28;20049;-62
2022/01/28 11:37:03;;;;;;;17.48;6.32;;;;;;;-5.14;70.53;98111.91;5007639;28;20068;-61
2022/01/28 11:39:37;;;;;;;32.78;12.85;;;;;;;-5.19;70.75;98114.59;4997918;28;20189;-60
2022/01/28 11:42:11;;;;;;;29.13;10.68;;;;;;;-5.13;70.72;98122.50;5003381;28;20054;-62
2022/01/28 11:44:49;;;;;;;24.48;11.73;;;;;;;-5.09;70.22;98117.38;5001725;28;20054;-55
2022/01/28 11:47:37;;;;;;;32.65;12.13;;;;;;;-5.11;70.07;98122.22;5008566;28;20062;-58
2022/01/28 11:50:13;;;;;;;36.15;11.77;;;;;;;-5.15;70.12;98124.66;5001032;28;20053;-63
2022/01/28 11:52:44;;;;;;;37.90;13.77;;;;;;;-5.16;70.50;98133.03;5012478;28;20519;-64
2022/01/28 11:55:17;;;;;;;;;;;;;;;-5.14;70.65;98120.03;5013790;28;20049;-63
2022/01/28 11:58:06;;;;;;;26.50;11.27;;;;;;;-5.21;70.14;98114.06;5001607;28;19925;-66
2022/01/28 12:00:41;;;;;;;40.47;12.50;;;;;;;-5.19;70.41;98122.72;5009651;28;20050;-63
2022/01/28 12:03:23;;;;;;;32.97;11.75;;;;;;;-5.23;70.98;98138.72;5012244;28;20057;-64
2022/01/28 12:05:58;;;;;;;13.25;5.85;;;;;;;-5.22;70.67;98123.25;5010852;28;20249;-63
2022/01/28 12:08:28;;;;;;;35.15;13.32;;;;;;;-5.18;70.15;98129.81;5013443;28;20050;-65
2022/01/28 12:10:57;;;;;;;29.25;11.75;;;;;;;-5.13;70.52;98137.97;5010835;28;20046;-64
2022/01/28 12:13:32;;;;;;;35.20;13.10;;;;;;;-5.13;70.73;98133.34;5013135;28;20050;-62
2022/01/28 12:16:20;;;;;;;33.33;12.38;;;;;;;-5.14;71.28;98133.59;5010963;28;20049;-63
2022/01/28 12:18:55;;;;;;;34.55;12.70;;;;;;;-5.18;71.41;98140.66;5003213;28;20050;-62
2022/01/28 12:21:24;;;;;;;33.33;11.48;;;;;;;-5.20;71.39;98135.50;4999945;28;20115;-64
2022/01/28 12:23:54;;;;;;;29.60;10.75;;;;;;;-5.20;71.05;98138.19;5010846;28;20452;-64
2022/01/28 12:26:22;;;;;;;36.83;14.77;;;;;;;-5.24;70.99;98142.50;4995121;28;20050;-63
2022/01/28 12:28:54;;;;;;;45.88;18.52;;;;;;;-5.19;71.65;98147.94;5010628;28;20072;-64
2022/01/28 12:31:25;;;;;;;45.65;17.75;;;;;;;-5.19;71.44;98139.00;4976756;28;20085;-63
2022/01/28 12:33:55;;;;;;;35.42;13.20;;;;;;;-5.16;71.08;98154.72;4995918;28;20156;-64
2022/01/28 12:36:26;;;;;;;30.98;12.65;;;;;;;-5.14;71.28;98141.72;5012646;28;20138;-62
2022/01/28 12:41:29;;;;;;;35.42;13.13;;;;;;;-5.34;72.22;98142.47;5012311;28;19961;-64
2022/01/28 12:43:57;;;;;;;36.23;13.00;;;;;;;-5.32;72.30;98128.66;5003445;28;20140;-63
2022/01/28 12:46:28;;;;;;;42.33;16.45;;;;;;;-5.25;72.53;98123.78;4996015;28;20532;-64
2022/01/28 12:48:58;;;;;;;34.80;12.35;;;;;;;-5.34;72.86;98128.94;4972346;28;20051;-63
2022/01/28 12:51:25;;;;;;;34.67;13.73;;;;;;;-5.33;72.75;98121.63;5012549;28;20053;-63
2022/01/28 12:53:57;;;;;;;38.15;14.65;;;;;;;-5.26;72.61;98127.59;5009535;28;20063;-62
2022/01/28 12:56:40;;;;;;;54.50;20.25;;;;;;;-5.37;73.54;98128.63;4997870;28;20588;-63
2022/01/28 17:25:27;;;;;;;94.60;36.00;;;;;;;-5.57;74.34;98121.25;4029779;28;20429;-59
2022/01/28 17:27:54;;;;;;;60.65;21.83;;;;;;;-5.57;74.30;98118.53;5011822;28;20150;-61
2022/01/28 17:30:25;;;;;;;43.10;13.10;;;;;;;-5.59;74.15;98120.72;5001644;28;20101;-57
2022/01/28 17:32:54;;;;;;;46.85;17.40;;;;;;;-5.53;74.00;98121.53;5012379;28;20038;-56
2022/01/28 17:35:25;;;;;;;44.88;17.55;;;;;;;-5.52;74.13;98128.56;5006019;28;20136;-61